Paint Mill Lake, Indiana
Current Conditions -  °F | °C
As of 5:53 PM on Monday 22 Dec 2014 (Local Time) from KHUF Reporting Station
Light Rain Light Rain  
Wind Chill: 42°   Ceiling: 5000
Heat Index: 45°   Visibility: 8mi
Dew Point: 42°   Wind: 6mph
Humidity: 90%   Direction: 130°SE
Pressure: 29.68"   Gusts: NA
Location:  39.3587°N, 87.4056°W
Report Text: KHUF 222253Z 13005KT 8SM -RA SCT042 OVC050 07/06 A2968 RMK AO2 SLP054 P0003 T00720056
Loading
Personal Weather Stations






























Interactive Weather Map New forecast layout! Learn more

10-Day Weather Forecast

Advertisements
Track Severe Weather on mobile